sensor_id;sensor_type;location;lat;lon;timestamp;temperature;humidity
14093;DHT22;7123;49.468;10.992;2022-09-25T00:00:50;16.10;99.90
14093;DHT22;7123;49.468;10.992;2022-09-25T00:03:17;16.10;99.90
14093;DHT22;7123;49.468;10.992;2022-09-25T00:05:45;16.10;99.90
14093;DHT22;7123;49.468;10.992;2022-09-25T00:08:13;16.10;99.90
14093;DHT22;7123;49.468;10.992;2022-09-25T00:10:45;16.10;99.90
14093;DHT22;7123;49.468;10.992;2022-09-25T00:13:13;16.10;99.90
14093;DHT22;7123;49.468;10.992;2022-09-25T00:15:54;16.10;99.90
14093;DHT22;7123;49.468;10.992;2022-09-25T00:18:22;16.10;99.90
14093;DHT22;7123;49.468;10.992;2022-09-25T00:21:10;16.10;99.90
14093;DHT22;7123;49.468;10.992;2022-09-25T00:23:39;16.10;99.90
14093;DHT22;7123;49.468;10.992;2022-09-25T00:26:07;16.00;99.90
14093;DHT22;7123;49.468;10.992;2022-09-25T00:28:35;16.00;99.90
14093;DHT22;7123;49.468;10.992;2022-09-25T00:31:03;16.00;99.90
14093;DHT22;7123;49.468;10.992;2022-09-25T00:33:33;16.00;99.90
14093;DHT22;7123;49.468;10.992;2022-09-25T00:36:05;16.00;99.90
14093;DHT22;7123;49.468;10.992;2022-09-25T00:38:34;16.00;99.90
14093;DHT22;7123;49.468;10.992;2022-09-25T00:41:01;16.00;99.90
14093;DHT22;7123;49.468;10.992;2022-09-25T00:43:49;16.00;99.90
14093;DHT22;7123;49.468;10.992;2022-09-25T00:51:20;16.00;99.90
14093;DHT22;7123;49.468;10.992;2022-09-25T00:53:48;16.00;99.90
14093;DHT22;7123;49.468;10.992;2022-09-25T00:56:15;16.00;99.90
14093;DHT22;7123;49.468;10.992;2022-09-25T00:58:42;15.90;99.90
14093;DHT22;7123;49.468;10.992;2022-09-25T01:01:09;15.90;99.90
14093;DHT22;7123;49.468;10.992;2022-09-25T01:03:38;15.90;99.90
14093;DHT22;7123;49.468;10.992;2022-09-25T01:06:05;15.90;99.90
14093;DHT22;7123;49.468;10.992;2022-09-25T01:08:33;15.90;99.90
14093;DHT22;7123;49.468;10.992;2022-09-25T01:11:00;15.80;99.90
14093;DHT22;7123;49.468;10.992;2022-09-25T01:13:27;15.80;99.90
14093;DHT22;7123;49.468;10.992;2022-09-25T01:21:35;15.80;99.90
14093;DHT22;7123;49.468;10.992;2022-09-25T01:35:45;15.80;99.90
14093;DHT22;7123;49.468;10.992;2022-09-25T01:38:44;15.80;99.90
14093;DHT22;7123;49.468;10.992;2022-09-25T01:41:26;15.80;99.90
14093;DHT22;7123;49.468;10.992;2022-09-25T01:44:02;15.80;99.90
14093;DHT22;7123;49.468;10.992;2022-09-25T01:46:33;15.80;99.90
14093;DHT22;7123;49.468;10.992;2022-09-25T01:49:08;15.80;99.90
14093;DHT22;7123;49.468;10.992;2022-09-25T01:52:00;15.80;99.90
14093;DHT22;7123;49.468;10.992;2022-09-25T01:54:50;15.80;99.90
14093;DHT22;7123;49.468;10.992;2022-09-25T01:57:49;15.80;99.90
14093;DHT22;7123;49.468;10.992;2022-09-25T02:00:42;15.80;99.90
14093;DHT22;7123;49.468;10.992;2022-09-25T02:03:18;15.80;99.90
14093;DHT22;7123;49.468;10.992;2022-09-25T02:05:54;15.80;99.90
14093;DHT22;7123;49.468;10.992;2022-09-25T02:08:34;15.80;99.90
14093;DHT22;7123;49.468;10.992;2022-09-25T02:11:04;15.80;99.90
14093;DHT22;7123;49.468;10.992;2022-09-25T02:13:46;15.80;99.90
14093;DHT22;7123;49.468;10.992;2022-09-25T02:16:26;15.80;99.90
14093;DHT22;7123;49.468;10.992;2022-09-25T02:18:55;15.80;99.90
14093;DHT22;7123;49.468;10.992;2022-09-25T02:24:44;15.80;99.90
14093;DHT22;7123;49.468;10.992;2022-09-25T02:27:26;15.70;99.90
14093;DHT22;7123;49.468;10.992;2022-09-25T02:29:54;15.80;99.90
14093;DHT22;7123;49.468;10.992;2022-09-25T02:32:32;15.80;99.90
14093;DHT22;7123;49.468;10.992;2022-09-25T02:35:01;15.80;99.90
14093;DHT22;7123;49.468;10.992;2022-09-25T02:37:28;15.80;99.90
14093;DHT22;7123;49.468;10.992;2022-09-25T02:39:57;15.80;99.90
14093;DHT22;7123;49.468;10.992;2022-09-25T02:42:52;15.80;99.90
14093;DHT22;7123;49.468;10.992;2022-09-25T02:45:42;15.80;99.90
14093;DHT22;7123;49.468;10.992;2022-09-25T02:48:31;15.80;99.90
14093;DHT22;7123;49.468;10.992;2022-09-25T02:51:16;15.80;99.90
14093;DHT22;7123;49.468;10.992;2022-09-25T02:54:04;15.80;99.90
14093;DHT22;7123;49.468;10.992;2022-09-25T02:59:37;15.70;99.90
14093;DHT22;7123;49.468;10.992;2022-09-25T03:02:04;15.70;99.90
14093;DHT22;7123;49.468;10.992;2022-09-25T03:04:33;15.70;99.90
14093;DHT22;7123;49.468;10.992;2022-09-25T03:07:03;15.70;99.90
14093;DHT22;7123;49.468;10.992;2022-09-25T03:09:34;15.60;99.90
14093;DHT22;7123;49.468;10.992;2022-09-25T03:12:11;15.60;99.90
14093;DHT22;7123;49.468;10.992;2022-09-25T03:14:38;15.60;99.90
14093;DHT22;7123;49.468;10.992;2022-09-25T03:17:20;15.50;99.90
14093;DHT22;7123;49.468;10.992;2022-09-25T03:19:53;15.60;99.90
14093;DHT22;7123;49.468;10.992;2022-09-25T03:22:19;15.50;99.90
14093;DHT22;7123;49.468;10.992;2022-09-25T03:24:46;15.50;99.90
14093;DHT22;7123;49.468;10.992;2022-09-25T03:27:14;15.60;99.90
14093;DHT22;7123;49.468;10.992;2022-09-25T03:29:41;15.50;99.90
14093;DHT22;7123;49.468;10.992;2022-09-25T03:32:08;15.50;99.90
14093;DHT22;7123;49.468;10.992;2022-09-25T03:34:35;15.50;99.90
14093;DHT22;7123;49.468;10.992;2022-09-25T03:37:02;15.50;99.90
14093;DHT22;7123;49.468;10.992;2022-09-25T03:39:28;15.50;99.90
14093;DHT22;7123;49.468;10.992;2022-09-25T03:41:55;15.50;99.90
14093;DHT22;7123;49.468;10.992;2022-09-25T03:44:21;15.50;99.90
14093;DHT22;7123;49.468;10.992;2022-09-25T03:46:48;15.50;99.90
14093;DHT22;7123;49.468;10.992;2022-09-25T03:49:14;15.50;99.90
14093;DHT22;7123;49.468;10.992;2022-09-25T03:51:48;15.50;99.90
14093;DHT22;7123;49.468;10.992;2022-09-25T03:54:17;15.50;99.90
14093;DHT22;7123;49.468;10.992;2022-09-25T03:56:44;15.50;99.90
14093;DHT22;7123;49.468;10.992;2022-09-25T03:59:13;15.40;99.90
14093;DHT22;7123;49.468;10.992;2022-09-25T04:01:56;15.30;99.90
14093;DHT22;7123;49.468;10.992;2022-09-25T04:04:31;15.50;99.90
14093;DHT22;7123;49.468;10.992;2022-09-25T04:06:58;15.50;99.90
14093;DHT22;7123;49.468;10.992;2022-09-25T04:09:24;15.50;99.90
14093;DHT22;7123;49.468;10.992;2022-09-25T04:11:51;15.50;99.90
14093;DHT22;7123;49.468;10.992;2022-09-25T04:14:23;15.50;99.90
14093;DHT22;7123;49.468;10.992;2022-09-25T04:17:01;15.50;99.90
14093;DHT22;7123;49.468;10.992;2022-09-25T04:19:43;15.50;99.90
14093;DHT22;7123;49.468;10.992;2022-09-25T04:22:11;15.50;99.90
14093;DHT22;7123;49.468;10.992;2022-09-25T04:24:39;15.30;99.90
14093;DHT22;7123;49.468;10.992;2022-09-25T04:27:17;15.50;99.90
14093;DHT22;7123;49.468;10.992;2022-09-25T04:29:50;15.40;99.90
14093;DHT22;7123;49.468;10.992;2022-09-25T04:32:37;15.50;99.90
14093;DHT22;7123;49.468;10.992;2022-09-25T04:35:22;15.50;99.90
14093;DHT22;7123;49.468;10.992;2022-09-25T04:37:50;15.50;99.90
14093;DHT22;7123;49.468;10.992;2022-09-25T04:40:16;15.50;99.90
14093;DHT22;7123;49.468;10.992;2022-09-25T04:42:43;15.40;99.90
14093;DHT22;7123;49.468;10.992;2022-09-25T04:45:10;15.50;99.90
14093;DHT22;7123;49.468;10.992;2022-09-25T04:47:36;15.30;99.90
14093;DHT22;7123;49.468;10.992;2022-09-25T04:50:03;15.40;99.90
14093;DHT22;7123;49.468;10.992;2022-09-25T04:52:30;15.40;99.90
14093;DHT22;7123;49.468;10.992;2022-09-25T04:54:57;15.40;99.90
14093;DHT22;7123;49.468;10.992;2022-09-25T04:57:23;15.30;99.90
14093;DHT22;7123;49.468;10.992;2022-09-25T05:00:12;15.30;99.90
14093;DHT22;7123;49.468;10.992;2022-09-25T05:02:42;15.30;99.90
14093;DHT22;7123;49.468;10.992;2022-09-25T05:05:09;15.30;99.90
14093;DHT22;7123;49.468;10.992;2022-09-25T05:07:36;15.30;99.90
14093;DHT22;7123;49.468;10.992;2022-09-25T05:10:02;15.30;99.90
14093;DHT22;7123;49.468;10.992;2022-09-25T05:12:29;15.30;99.90
14093;DHT22;7123;49.468;10.992;2022-09-25T05:14:56;15.30;99.90
14093;DHT22;7123;49.468;10.992;2022-09-25T05:17:22;15.30;99.90
14093;DHT22;7123;49.468;10.992;2022-09-25T05:19:49;15.20;99.90
14093;DHT22;7123;49.468;10.992;2022-09-25T05:22:15;15.20;99.90
14093;DHT22;7123;49.468;10.992;2022-09-25T05:24:42;15.20;99.90
14093;DHT22;7123;49.468;10.992;2022-09-25T05:27:09;15.20;99.90
14093;DHT22;7123;49.468;10.992;2022-09-25T05:29:35;15.20;99.90
14093;DHT22;7123;49.468;10.992;2022-09-25T05:32:02;15.20;99.90
14093;DHT22;7123;49.468;10.992;2022-09-25T05:34:29;15.10;99.90
14093;DHT22;7123;49.468;10.992;2022-09-25T05:36:55;15.10;99.90
14093;DHT22;7123;49.468;10.992;2022-09-25T05:39:22;15.10;99.90
14093;DHT22;7123;49.468;10.992;2022-09-25T05:41:48;15.10;99.90
14093;DHT22;7123;49.468;10.992;2022-09-25T05:44:15;15.10;99.90
14093;DHT22;7123;49.468;10.992;2022-09-25T05:46:42;15.10;99.90
14093;DHT22;7123;49.468;10.992;2022-09-25T05:49:08;15.10;99.90
14093;DHT22;7123;49.468;10.992;2022-09-25T05:51:35;15.10;99.90
14093;DHT22;7123;49.468;10.992;2022-09-25T05:54:01;15.10;99.90
14093;DHT22;7123;49.468;10.992;2022-09-25T05:56:28;15.10;99.90
14093;DHT22;7123;49.468;10.992;2022-09-25T05:58:55;15.20;99.90
14093;DHT22;7123;49.468;10.992;2022-09-25T06:01:24;15.20;99.90
14093;DHT22;7123;49.468;10.992;2022-09-25T06:03:51;15.20;99.90
14093;DHT22;7123;49.468;10.992;2022-09-25T06:06:18;15.10;99.90
14093;DHT22;7123;49.468;10.992;2022-09-25T06:08:53;15.10;99.90
14093;DHT22;7123;49.468;10.992;2022-09-25T06:11:19;15.10;99.90
14093;DHT22;7123;49.468;10.992;2022-09-25T06:13:48;15.10;99.90
14093;DHT22;7123;49.468;10.992;2022-09-25T06:16:20;15.10;99.90
14093;DHT22;7123;49.468;10.992;2022-09-25T06:18:46;15.10;99.90
14093;DHT22;7123;49.468;10.992;2022-09-25T06:21:13;15.00;99.90
14093;DHT22;7123;49.468;10.992;2022-09-25T06:23:42;15.10;99.90
14093;DHT22;7123;49.468;10.992;2022-09-25T06:26:14;15.10;99.90
14093;DHT22;7123;49.468;10.992;2022-09-25T06:28:40;15.10;99.90
14093;DHT22;7123;49.468;10.992;2022-09-25T06:31:07;15.10;99.90
14093;DHT22;7123;49.468;10.992;2022-09-25T06:33:34;15.10;99.90
14093;DHT22;7123;49.468;10.992;2022-09-25T06:36:01;15.10;99.90
14093;DHT22;7123;49.468;10.992;2022-09-25T06:38:30;15.10;99.90
14093;DHT22;7123;49.468;10.992;2022-09-25T06:40:58;15.10;99.90
14093;DHT22;7123;49.468;10.992;2022-09-25T06:43:26;15.10;99.90
14093;DHT22;7123;49.468;10.992;2022-09-25T06:45:53;15.10;99.90
14093;DHT22;7123;49.468;10.992;2022-09-25T06:48:20;15.10;99.90
14093;DHT22;7123;49.468;10.992;2022-09-25T06:50:50;15.10;99.90
14093;DHT22;7123;49.468;10.992;2022-09-25T06:53:18;15.10;99.90
14093;DHT22;7123;49.468;10.992;2022-09-25T06:55:46;15.00;99.90
14093;DHT22;7123;49.468;10.992;2022-09-25T06:58:15;15.00;99.90
14093;DHT22;7123;49.468;10.992;2022-09-25T07:00:46;15.10;99.90
14093;DHT22;7123;49.468;10.992;2022-09-25T07:03:13;15.00;99.90
14093;DHT22;7123;49.468;10.992;2022-09-25T07:05:59;15.00;99.90
14093;DHT22;7123;49.468;10.992;2022-09-25T07:08:26;15.10;99.90
14093;DHT22;7123;49.468;10.992;2022-09-25T07:10:55;15.10;99.90
14093;DHT22;7123;49.468;10.992;2022-09-25T07:13:24;15.10;99.90
14093;DHT22;7123;49.468;10.992;2022-09-25T07:15:52;15.10;99.90
14093;DHT22;7123;49.468;10.992;2022-09-25T07:18:20;15.10;99.90
14093;DHT22;7123;49.468;10.992;2022-09-25T07:20:48;15.10;99.90
14093;DHT22;7123;49.468;10.992;2022-09-25T07:23:16;15.20;99.90
14093;DHT22;7123;49.468;10.992;2022-09-25T07:25:44;15.20;99.90
14093;DHT22;7123;49.468;10.992;2022-09-25T07:28:11;15.20;99.90
14093;DHT22;7123;49.468;10.992;2022-09-25T07:30:40;15.20;99.90
14093;DHT22;7123;49.468;10.992;2022-09-25T07:33:07;15.20;99.90
14093;DHT22;7123;49.468;10.992;2022-09-25T07:35:35;15.20;99.90
14093;DHT22;7123;49.468;10.992;2022-09-25T07:38:03;15.20;99.90
14093;DHT22;7123;49.468;10.992;2022-09-25T07:40:29;15.20;99.90
14093;DHT22;7123;49.468;10.992;2022-09-25T07:42:59;15.20;99.90
14093;DHT22;7123;49.468;10.992;2022-09-25T07:45:27;15.20;99.90
14093;DHT22;7123;49.468;10.992;2022-09-25T07:47:58;15.20;99.90
14093;DHT22;7123;49.468;10.992;2022-09-25T07:50:27;15.30;99.90
14093;DHT22;7123;49.468;10.992;2022-09-25T07:52:54;15.30;99.90
14093;DHT22;7123;49.468;10.992;2022-09-25T07:55:23;15.30;99.90
14093;DHT22;7123;49.468;10.992;2022-09-25T07:57:50;15.30;99.90
14093;DHT22;7123;49.468;10.992;2022-09-25T08:00:17;15.30;99.90
14093;DHT22;7123;49.468;10.992;2022-09-25T08:02:44;15.40;99.90
14093;DHT22;7123;49.468;10.992;2022-09-25T08:05:20;15.40;99.90
14093;DHT22;7123;49.468;10.992;2022-09-25T08:07:46;15.40;99.90
14093;DHT22;7123;49.468;10.992;2022-09-25T08:10:13;15.40;99.90
14093;DHT22;7123;49.468;10.992;2022-09-25T08:12:40;15.40;99.90
14093;DHT22;7123;49.468;10.992;2022-09-25T08:15:08;15.40;99.90
14093;DHT22;7123;49.468;10.992;2022-09-25T08:17:36;15.40;99.90
14093;DHT22;7123;49.468;10.992;2022-09-25T08:20:02;15.40;99.90
14093;DHT22;7123;49.468;10.992;2022-09-25T08:22:29;15.40;99.90
14093;DHT22;7123;49.468;10.992;2022-09-25T08:24:56;15.50;99.90
14093;DHT22;7123;49.468;10.992;2022-09-25T08:27:22;15.50;99.90
14093;DHT22;7123;49.468;10.992;2022-09-25T08:29:49;15.50;99.90
14093;DHT22;7123;49.468;10.992;2022-09-25T08:32:16;15.50;99.90
14093;DHT22;7123;49.468;10.992;2022-09-25T08:34:42;15.50;99.90
14093;DHT22;7123;49.468;10.992;2022-09-25T08:37:09;15.60;99.90
14093;DHT22;7123;49.468;10.992;2022-09-25T08:39:36;15.50;99.90
14093;DHT22;7123;49.468;10.992;2022-09-25T08:42:04;15.50;99.90
14093;DHT22;7123;49.468;10.992;2022-09-25T08:44:48;15.50;99.90
14093;DHT22;7123;49.468;10.992;2022-09-25T08:47:49;15.50;99.90
14093;DHT22;7123;49.468;10.992;2022-09-25T08:50:35;15.50;99.90
14093;DHT22;7123;49.468;10.992;2022-09-25T08:53:14;15.50;99.90
14093;DHT22;7123;49.468;10.992;2022-09-25T08:55:42;15.60;99.90
14093;DHT22;7123;49.468;10.992;2022-09-25T08:58:30;15.60;99.90
14093;DHT22;7123;49.468;10.992;2022-09-25T09:01:05;15.60;99.90
14093;DHT22;7123;49.468;10.992;2022-09-25T09:03:49;15.60;99.90
14093;DHT22;7123;49.468;10.992;2022-09-25T09:06:18;15.60;99.90
14093;DHT22;7123;49.468;10.992;2022-09-25T09:08:50;15.60;99.90
14093;DHT22;7123;49.468;10.992;2022-09-25T09:11:23;15.60;99.90
14093;DHT22;7123;49.468;10.992;2022-09-25T09:14:15;15.50;99.90
14093;DHT22;7123;49.468;10.992;2022-09-25T09:16:48;15.40;99.90
14093;DHT22;7123;49.468;10.992;2022-09-25T09:19:17;15.40;99.90
14093;DHT22;7123;49.468;10.992;2022-09-25T09:25:22;15.40;99.90
14093;DHT22;7123;49.468;10.992;2022-09-25T09:27:37;15.40;99.90
14093;DHT22;7123;49.468;10.992;2022-09-25T09:30:18;15.50;99.90
14093;DHT22;7123;49.468;10.992;2022-09-25T09:41:35;15.90;99.90
14093;DHT22;7123;49.468;10.992;2022-09-25T09:49:46;16.00;99.90
14093;DHT22;7123;49.468;10.992;2022-09-25T09:52:20;16.10;99.90
14093;DHT22;7123;49.468;10.992;2022-09-25T09:57:59;16.10;99.90
14093;DHT22;7123;49.468;10.992;2022-09-25T10:00:31;16.10;99.90
14093;DHT22;7123;49.468;10.992;2022-09-25T10:03:21;16.10;99.90
14093;DHT22;7123;49.468;10.992;2022-09-25T10:05:52;16.10;99.90
14093;DHT22;7123;49.468;10.992;2022-09-25T10:08:23;16.00;99.90
14093;DHT22;7123;49.468;10.992;2022-09-25T10:10:52;16.10;99.90
14093;DHT22;7123;49.468;10.992;2022-09-25T10:13:32;16.20;99.90
14093;DHT22;7123;49.468;10.992;2022-09-25T10:16:16;16.30;99.90
14093;DHT22;7123;49.468;10.992;2022-09-25T10:21:24;16.50;99.90
14093;DHT22;7123;49.468;10.992;2022-09-25T10:23:54;16.50;99.90
14093;DHT22;7123;49.468;10.992;2022-09-25T10:26:35;16.50;99.90
14093;DHT22;7123;49.468;10.992;2022-09-25T10:31:35;16.60;99.90
14093;DHT22;7123;49.468;10.992;2022-09-25T10:36:44;16.70;99.90
14093;DHT22;7123;49.468;10.992;2022-09-25T10:39:32;16.70;99.90
14093;DHT22;7123;49.468;10.992;2022-09-25T10:42:37;16.70;99.90
14093;DHT22;7123;49.468;10.992;2022-09-25T10:45:26;16.80;99.90
14093;DHT22;7123;49.468;10.992;2022-09-25T10:47:54;16.80;99.90
14093;DHT22;7123;49.468;10.992;2022-09-25T10:50:42;16.80;99.90
14093;DHT22;7123;49.468;10.992;2022-09-25T10:53:26;16.80;99.90
14093;DHT22;7123;49.468;10.992;2022-09-25T10:56:05;16.80;99.90
14093;DHT22;7123;49.468;10.992;2022-09-25T10:58:51;16.70;99.90
14093;DHT22;7123;49.468;10.992;2022-09-25T11:01:28;16.70;99.90
14093;DHT22;7123;49.468;10.992;2022-09-25T11:03:57;16.70;99.90
14093;DHT22;7123;49.468;10.992;2022-09-25T11:06:32;16.70;99.90
14093;DHT22;7123;49.468;10.992;2022-09-25T11:09:14;16.80;99.90
14093;DHT22;7123;49.468;10.992;2022-09-25T11:11:42;16.80;99.90
14093;DHT22;7123;49.468;10.992;2022-09-25T11:14:30;16.90;99.90
14093;DHT22;7123;49.468;10.992;2022-09-25T11:16:59;16.90;99.90
14093;DHT22;7123;49.468;10.992;2022-09-25T11:19:35;16.90;99.90
14093;DHT22;7123;49.468;10.992;2022-09-25T11:22:21;16.90;99.90
14093;DHT22;7123;49.468;10.992;2022-09-25T11:25:19;16.90;99.90
14093;DHT22;7123;49.468;10.992;2022-09-25T11:27:55;16.90;99.90
14093;DHT22;7123;49.468;10.992;2022-09-25T11:30:24;16.80;99.90
14093;DHT22;7123;49.468;10.992;2022-09-25T11:33:12;16.70;99.90
14093;DHT22;7123;49.468;10.992;2022-09-25T11:35:51;16.60;99.90
14093;DHT22;7123;49.468;10.992;2022-09-25T11:38:46;16.30;99.90
14093;DHT22;7123;49.468;10.992;2022-09-25T11:41:35;15.90;99.90
14093;DHT22;7123;49.468;10.992;2022-09-25T11:47:06;15.40;99.90
14093;DHT22;7123;49.468;10.992;2022-09-25T11:49:37;15.20;99.90
14093;DHT22;7123;49.468;10.992;2022-09-25T12:03:51;15.00;99.90
14093;DHT22;7123;49.468;10.992;2022-09-25T12:23:03;15.20;99.90
14093;DHT22;7123;49.468;10.992;2022-09-25T12:34:29;15.60;99.90
14093;DHT22;7123;49.468;10.992;2022-09-25T12:37:33;15.60;99.90
14093;DHT22;7123;49.468;10.992;2022-09-25T12:40:29;15.60;99.90
14093;DHT22;7123;49.468;10.992;2022-09-25T12:43:06;15.60;99.90
14093;DHT22;7123;49.468;10.992;2022-09-25T12:45:42;15.50;99.90
14093;DHT22;7123;49.468;10.992;2022-09-25T12:51:06;15.60;99.90
14093;DHT22;7123;49.468;10.992;2022-09-25T12:53:50;15.70;99.90
14093;DHT22;7123;49.468;10.992;2022-09-25T12:56:45;15.70;99.90
14093;DHT22;7123;49.468;10.992;2022-09-25T12:59:47;15.80;99.90
14093;DHT22;7123;49.468;10.992;2022-09-25T13:02:26;15.90;99.90
14093;DHT22;7123;49.468;10.992;2022-09-25T13:10:32;14.90;99.90
14093;DHT22;7123;49.468;10.992;2022-09-25T13:13:03;14.90;99.90
14093;DHT22;7123;49.468;10.992;2022-09-25T13:15:38;14.70;99.90
14093;DHT22;7123;49.468;10.992;2022-09-25T13:18:10;14.70;99.90
14093;DHT22;7123;49.468;10.992;2022-09-25T13:23:25;14.90;99.90
14093;DHT22;7123;49.468;10.992;2022-09-25T13:25:55;14.90;99.90
14093;DHT22;7123;49.468;10.992;2022-09-25T13:31:03;15.20;99.90
14093;DHT22;7123;49.468;10.992;2022-09-25T13:42:23;15.50;99.90
14093;DHT22;7123;49.468;10.992;2022-09-25T13:47:48;15.70;99.90
14093;DHT22;7123;49.468;10.992;2022-09-25T13:50:21;15.70;99.90
14093;DHT22;7123;49.468;10.992;2022-09-25T13:55:43;15.80;99.90
14093;DHT22;7123;49.468;10.992;2022-09-25T13:58:30;15.90;99.90
14093;DHT22;7123;49.468;10.992;2022-09-25T14:00:58;15.90;99.90
14093;DHT22;7123;49.468;10.992;2022-09-25T14:05:58;15.90;99.90
14093;DHT22;7123;49.468;10.992;2022-09-25T14:08:27;16.00;99.90
14093;DHT22;7123;49.468;10.992;2022-09-25T14:10:57;16.00;99.90
14093;DHT22;7123;49.468;10.992;2022-09-25T14:13:26;16.10;99.90
14093;DHT22;7123;49.468;10.992;2022-09-25T14:15:57;16.10;99.90
14093;DHT22;7123;49.468;10.992;2022-09-25T14:18:39;16.10;99.90
14093;DHT22;7123;49.468;10.992;2022-09-25T14:21:07;16.10;99.90
14093;DHT22;7123;49.468;10.992;2022-09-25T14:26:25;16.20;99.90
14093;DHT22;7123;49.468;10.992;2022-09-25T14:28:55;16.20;99.90
14093;DHT22;7123;49.468;10.992;2022-09-25T14:40:28;16.40;99.90
14093;DHT22;7123;49.468;10.992;2022-09-25T14:48:27;16.30;99.90
14093;DHT22;7123;49.468;10.992;2022-09-25T14:51:00;16.30;99.90
14093;DHT22;7123;49.468;10.992;2022-09-25T14:53:35;16.30;99.90
14093;DHT22;7123;49.468;10.992;2022-09-25T14:56:04;16.30;99.90
14093;DHT22;7123;49.468;10.992;2022-09-25T14:58:37;16.20;99.90
14093;DHT22;7123;49.468;10.992;2022-09-25T15:01:28;16.20;99.90
14093;DHT22;7123;49.468;10.992;2022-09-25T15:04:06;16.30;99.90
14093;DHT22;7123;49.468;10.992;2022-09-25T15:06:36;16.30;99.90
14093;DHT22;7123;49.468;10.992;2022-09-25T15:09:33;16.30;99.90
14093;DHT22;7123;49.468;10.992;2022-09-25T15:17:45;16.40;99.90
14093;DHT22;7123;49.468;10.992;2022-09-25T15:20:19;16.40;99.90
14093;DHT22;7123;49.468;10.992;2022-09-25T15:23:04;16.40;99.90
14093;DHT22;7123;49.468;10.992;2022-09-25T15:25:57;16.40;99.90
14093;DHT22;7123;49.468;10.992;2022-09-25T15:28:25;16.30;99.90
14093;DHT22;7123;49.468;10.992;2022-09-25T15:30:57;16.30;99.90
14093;DHT22;7123;49.468;10.992;2022-09-25T15:33:30;16.30;99.90
14093;DHT22;7123;49.468;10.992;2022-09-25T15:38:33;16.30;99.90
14093;DHT22;7123;49.468;10.992;2022-09-25T15:41:01;16.30;99.90
14093;DHT22;7123;49.468;10.992;2022-09-25T15:43:29;16.40;99.90
14093;DHT22;7123;49.468;10.992;2022-09-25T15:48:35;16.30;99.90
14093;DHT22;7123;49.468;10.992;2022-09-25T15:51:19;16.30;99.90
14093;DHT22;7123;49.468;10.992;2022-09-25T15:53:55;16.30;99.90
14093;DHT22;7123;49.468;10.992;2022-09-25T16:02:26;16.30;99.90
14093;DHT22;7123;49.468;10.992;2022-09-25T16:05:29;16.30;99.90
14093;DHT22;7123;49.468;10.992;2022-09-25T16:11:13;16.30;99.90
14093;DHT22;7123;49.468;10.992;2022-09-25T16:13:47;16.30;99.90
14093;DHT22;7123;49.468;10.992;2022-09-25T16:16:24;16.40;99.90
14093;DHT22;7123;49.468;10.992;2022-09-25T16:18:57;16.30;99.90
14093;DHT22;7123;49.468;10.992;2022-09-25T16:21:30;16.30;99.90
14093;DHT22;7123;49.468;10.992;2022-09-25T16:24:10;16.30;99.90
14093;DHT22;7123;49.468;10.992;2022-09-25T16:26:43;16.40;99.90
14093;DHT22;7123;49.468;10.992;2022-09-25T16:31:41;16.30;99.90
14093;DHT22;7123;49.468;10.992;2022-09-25T16:34:26;16.30;99.90
14093;DHT22;7123;49.468;10.992;2022-09-25T16:36:59;16.30;99.90
14093;DHT22;7123;49.468;10.992;2022-09-25T16:39:35;16.30;99.90
14093;DHT22;7123;49.468;10.992;2022-09-25T16:42:28;16.30;99.90
14093;DHT22;7123;49.468;10.992;2022-09-25T16:45:54;16.30;99.90
14093;DHT22;7123;49.468;10.992;2022-09-25T16:47:53;16.30;99.90
14093;DHT22;7123;49.468;10.992;2022-09-25T16:50:20;16.30;99.90
14093;DHT22;7123;49.468;10.992;2022-09-25T16:52:50;16.20;99.90
14093;DHT22;7123;49.468;10.992;2022-09-25T16:55:24;16.30;99.90
14093;DHT22;7123;49.468;10.992;2022-09-25T16:57:54;16.20;99.90
14093;DHT22;7123;49.468;10.992;2022-09-25T17:00:27;16.20;99.90
14093;DHT22;7123;49.468;10.992;2022-09-25T17:02:55;16.00;99.90
14093;DHT22;7123;49.468;10.992;2022-09-25T17:05:25;15.90;99.90
14093;DHT22;7123;49.468;10.992;2022-09-25T17:07:55;16.00;99.90
14093;DHT22;7123;49.468;10.992;2022-09-25T17:10:26;15.90;99.90
14093;DHT22;7123;49.468;10.992;2022-09-25T17:12:55;15.80;99.90
14093;DHT22;7123;49.468;10.992;2022-09-25T17:15:26;15.60;99.90
14093;DHT22;7123;49.468;10.992;2022-09-25T17:17:54;15.50;99.90
14093;DHT22;7123;49.468;10.992;2022-09-25T17:20:24;15.40;99.90
14093;DHT22;7123;49.468;10.992;2022-09-25T17:22:53;15.30;99.90
14093;DHT22;7123;49.468;10.992;2022-09-25T17:25:44;15.20;99.90
14093;DHT22;7123;49.468;10.992;2022-09-25T17:28:14;15.20;99.90
14093;DHT22;7123;49.468;10.992;2022-09-25T17:30:42;15.10;99.90
14093;DHT22;7123;49.468;10.992;2022-09-25T17:33:14;15.10;99.90
14093;DHT22;7123;49.468;10.992;2022-09-25T17:35:58;15.00;99.90
14093;DHT22;7123;49.468;10.992;2022-09-25T17:38:25;14.90;99.90
14093;DHT22;7123;49.468;10.992;2022-09-25T17:40:54;14.90;99.90
14093;DHT22;7123;49.468;10.992;2022-09-25T17:43:24;14.90;99.90
14093;DHT22;7123;49.468;10.992;2022-09-25T17:48:27;14.80;99.90
14093;DHT22;7123;49.468;10.992;2022-09-25T17:53:28;14.60;99.90
14093;DHT22;7123;49.468;10.992;2022-09-25T17:55:56;14.60;99.90
14093;DHT22;7123;49.468;10.992;2022-09-25T17:58:24;14.50;99.90
14093;DHT22;7123;49.468;10.992;2022-09-25T18:00:52;14.50;99.90
14093;DHT22;7123;49.468;10.992;2022-09-25T18:03:20;14.40;99.90
14093;DHT22;7123;49.468;10.992;2022-09-25T18:05:46;14.40;99.90
14093;DHT22;7123;49.468;10.992;2022-09-25T18:08:15;14.40;99.90
14093;DHT22;7123;49.468;10.992;2022-09-25T18:10:41;14.40;99.90
14093;DHT22;7123;49.468;10.992;2022-09-25T18:13:12;14.30;99.90
14093;DHT22;7123;49.468;10.992;2022-09-25T18:15:47;14.20;99.90
14093;DHT22;7123;49.468;10.992;2022-09-25T18:18:14;14.20;99.90
14093;DHT22;7123;49.468;10.992;2022-09-25T18:20:41;14.10;99.90
14093;DHT22;7123;49.468;10.992;2022-09-25T18:23:32;14.10;99.90
14093;DHT22;7123;49.468;10.992;2022-09-25T18:26:05;14.00;99.90
14093;DHT22;7123;49.468;10.992;2022-09-25T18:28:32;14.10;99.90
14093;DHT22;7123;49.468;10.992;2022-09-25T18:30:59;14.00;99.90
14093;DHT22;7123;49.468;10.992;2022-09-25T18:33:26;14.10;99.90
14093;DHT22;7123;49.468;10.992;2022-09-25T18:35:53;14.00;99.90
14093;DHT22;7123;49.468;10.992;2022-09-25T18:38:20;13.90;99.90
14093;DHT22;7123;49.468;10.992;2022-09-25T18:40:46;13.90;99.90
14093;DHT22;7123;49.468;10.992;2022-09-25T18:43:13;13.90;99.90
14093;DHT22;7123;49.468;10.992;2022-09-25T18:45:46;13.80;99.90
14093;DHT22;7123;49.468;10.992;2022-09-25T18:48:14;13.80;99.90
14093;DHT22;7123;49.468;10.992;2022-09-25T18:50:45;13.80;99.90
14093;DHT22;7123;49.468;10.992;2022-09-25T18:53:13;13.70;99.90
14093;DHT22;7123;49.468;10.992;2022-09-25T18:55:39;13.70;99.90
14093;DHT22;7123;49.468;10.992;2022-09-25T18:58:09;13.70;99.90